Terminal Aerodrome Forecast
Issued by NWS

Home | Current Version | Previous Version | Text Only | Print | Product List | Glossary On
Versions: 1 2 3 4 5 6 7 8 9 10 11 12
297
FTUS46 KSTO 261838 RRA
TAFSCK
TAF
KSCK 261838Z 2619/2718 00000KT P6SM SKC
     FM262200 28009KT P6SM SCT150 BKN200
     FM270700 27008KT P6SM VCSH BKN025=

USA.gov is the U.S. government's official web portal to all federal, state and local government web resources and services.